WN53 weather

Frontier Airpark
Lake Stevens, Washington, United States

Public forecast

Using degrees Fahrenheit for public forecast. Weather courtesy of forecast.io.

Closest aviation weather report (METAR) to Frontier Airpark

Closest report is Arlington Municipal Airport, 4.9 nm (9.1 km) NW. Retrieved 2020/07/04 23:56 UTC (1 hour ago):

KAWO 042356Z AUTO 30011KT 10SM CLR 21/12 A3020 RMK AO2 SLP229 T02060122 10211 20161 56006

Closest aviation forecast (TAF) to Frontier Airpark

Closest forecast is Snohomish County (Paine Field) Airport, 15.1 nm (28.0 km) SW. Retrieved 2020-07-05 00:24 UTC (32 minutes ago):

TAF KPAE 042323Z 0500/0524 31005KT P6SM SCT250 FM051000 00000KT P6SM SCT010 BKN035 FM051700 29004KT P6SM SCT010 BKN050 FM051900 29005KT P6SM SCT050 BKN250